sensor_id;sensor_type;location;lat;lon;timestamp;P1;durP1;ratioP1;P2;durP2;ratioP2
79790;SDS011;69278;52.220;5.172;2023-09-19T00:00:55;5.32;;;1.45;;
79790;SDS011;69278;52.220;5.172;2023-09-19T00:03:23;5.65;;;1.30;;
79790;SDS011;69278;52.220;5.172;2023-09-19T00:05:51;5.73;;;1.50;;
79790;SDS011;69278;52.220;5.172;2023-09-19T00:08:18;8.15;;;1.30;;
79790;SDS011;69278;52.220;5.172;2023-09-19T00:10:49;6.45;;;1.30;;
79790;SDS011;69278;52.220;5.172;2023-09-19T00:13:15;7.47;;;1.55;;
79790;SDS011;69278;52.220;5.172;2023-09-19T00:15:44;4.30;;;1.30;;
79790;SDS011;69278;52.220;5.172;2023-09-19T00:18:15;6.40;;;1.50;;
79790;SDS011;69278;52.220;5.172;2023-09-19T00:20:43;3.97;;;1.38;;
79790;SDS011;69278;52.220;5.172;2023-09-19T00:23:13;7.85;;;1.33;;
79790;SDS011;69278;52.220;5.172;2023-09-19T00:25:40;5.65;;;1.30;;
79790;SDS011;69278;52.220;5.172;2023-09-19T00:28:08;8.73;;;1.48;;
79790;SDS011;69278;52.220;5.172;2023-09-19T00:30:35;8.20;;;1.53;;
79790;SDS011;69278;52.220;5.172;2023-09-19T00:33:04;3.70;;;1.40;;
79790;SDS011;69278;52.220;5.172;2023-09-19T00:35:32;3.47;;;1.30;;
79790;SDS011;69278;52.220;5.172;2023-09-19T00:37:59;3.97;;;1.42;;
79790;SDS011;69278;52.220;5.172;2023-09-19T00:40:26;7.82;;;1.50;;
79790;SDS011;69278;52.220;5.172;2023-09-19T00:42:52;3.40;;;1.30;;
79790;SDS011;69278;52.220;5.172;2023-09-19T00:45:25;5.80;;;1.40;;
79790;SDS011;69278;52.220;5.172;2023-09-19T00:47:52;5.40;;;1.52;;
79790;SDS011;69278;52.220;5.172;2023-09-19T00:50:19;3.63;;;1.38;;
79790;SDS011;69278;52.220;5.172;2023-09-19T00:52:49;7.43;;;1.38;;
79790;SDS011;69278;52.220;5.172;2023-09-19T00:55:19;4.40;;;1.50;;
79790;SDS011;69278;52.220;5.172;2023-09-19T00:57:46;4.28;;;1.30;;
79790;SDS011;69278;52.220;5.172;2023-09-19T01:00:13;10.25;;;1.50;;
79790;SDS011;69278;52.220;5.172;2023-09-19T01:02:42;7.35;;;1.67;;
79790;SDS011;69278;52.220;5.172;2023-09-19T01:05:10;9.70;;;1.60;;
79790;SDS011;69278;52.220;5.172;2023-09-19T01:07:36;6.80;;;1.43;;
79790;SDS011;69278;52.220;5.172;2023-09-19T01:10:11;3.55;;;1.15;;
79790;SDS011;69278;52.220;5.172;2023-09-19T01:18:03;5.82;;;1.20;;
79790;SDS011;69278;52.220;5.172;2023-09-19T01:20:49;4.00;;;1.30;;
79790;SDS011;69278;52.220;5.172;2023-09-19T01:23:31;3.72;;;1.40;;
79790;SDS011;69278;52.220;5.172;2023-09-19T01:29:17;6.53;;;1.75;;
79790;SDS011;69278;52.220;5.172;2023-09-19T01:32:01;7.85;;;1.50;;
79790;SDS011;69278;52.220;5.172;2023-09-19T01:37:22;3.55;;;1.35;;
79790;SDS011;69278;52.220;5.172;2023-09-19T01:39:54;7.82;;;1.80;;
79790;SDS011;69278;52.220;5.172;2023-09-19T01:42:27;5.55;;;1.20;;
79790;SDS011;69278;52.220;5.172;2023-09-19T01:45:11;5.60;;;1.45;;
79790;SDS011;69278;52.220;5.172;2023-09-19T01:47:43;4.53;;;1.20;;
79790;SDS011;69278;52.220;5.172;2023-09-19T01:52:53;5.15;;;1.33;;
79790;SDS011;69278;52.220;5.172;2023-09-19T01:55:43;5.55;;;1.40;;
79790;SDS011;69278;52.220;5.172;2023-09-19T01:58:20;4.78;;;1.40;;
79790;SDS011;69278;52.220;5.172;2023-09-19T02:00:48;5.10;;;1.27;;
79790;SDS011;69278;52.220;5.172;2023-09-19T02:03:20;4.25;;;1.20;;
79790;SDS011;69278;52.220;5.172;2023-09-19T02:05:50;4.13;;;1.30;;
79790;SDS011;69278;52.220;5.172;2023-09-19T02:08:20;5.05;;;1.50;;
79790;SDS011;69278;52.220;5.172;2023-09-19T02:10:50;5.45;;;1.30;;
79790;SDS011;69278;52.220;5.172;2023-09-19T02:13:17;5.33;;;1.40;;
79790;SDS011;69278;52.220;5.172;2023-09-19T02:15:45;6.13;;;1.40;;
79790;SDS011;69278;52.220;5.172;2023-09-19T02:18:13;3.70;;;1.33;;
79790;SDS011;69278;52.220;5.172;2023-09-19T02:20:40;6.00;;;1.42;;
79790;SDS011;69278;52.220;5.172;2023-09-19T02:23:07;5.90;;;1.60;;
79790;SDS011;69278;52.220;5.172;2023-09-19T02:25:34;5.93;;;1.53;;
79790;SDS011;69278;52.220;5.172;2023-09-19T02:28:01;8.07;;;1.38;;
79790;SDS011;69278;52.220;5.172;2023-09-19T02:30:29;5.50;;;1.58;;
79790;SDS011;69278;52.220;5.172;2023-09-19T02:32:56;5.40;;;1.50;;
79790;SDS011;69278;52.220;5.172;2023-09-19T02:35:22;5.53;;;1.50;;
79790;SDS011;69278;52.220;5.172;2023-09-19T02:37:50;8.57;;;1.40;;
79790;SDS011;69278;52.220;5.172;2023-09-19T02:40:16;7.60;;;1.33;;
79790;SDS011;69278;52.220;5.172;2023-09-19T02:42:46;3.97;;;1.23;;
79790;SDS011;69278;52.220;5.172;2023-09-19T02:45:15;6.13;;;1.48;;
79790;SDS011;69278;52.220;5.172;2023-09-19T02:47:44;6.18;;;1.40;;
79790;SDS011;69278;52.220;5.172;2023-09-19T02:50:11;6.43;;;1.73;;
79790;SDS011;69278;52.220;5.172;2023-09-19T02:52:40;6.95;;;1.70;;
79790;SDS011;69278;52.220;5.172;2023-09-19T02:55:11;7.10;;;1.50;;
79790;SDS011;69278;52.220;5.172;2023-09-19T02:57:40;6.18;;;1.50;;
79790;SDS011;69278;52.220;5.172;2023-09-19T03:00:09;5.10;;;1.40;;
79790;SDS011;69278;52.220;5.172;2023-09-19T03:02:36;6.60;;;1.60;;
79790;SDS011;69278;52.220;5.172;2023-09-19T03:05:04;5.90;;;1.60;;
79790;SDS011;69278;52.220;5.172;2023-09-19T03:07:31;7.15;;;1.70;;
79790;SDS011;69278;52.220;5.172;2023-09-19T03:09:58;6.88;;;1.40;;
79790;SDS011;69278;52.220;5.172;2023-09-19T03:12:27;10.60;;;1.60;;
79790;SDS011;69278;52.220;5.172;2023-09-19T03:14:53;8.00;;;1.53;;
79790;SDS011;69278;52.220;5.172;2023-09-19T03:17:20;7.45;;;1.80;;
79790;SDS011;69278;52.220;5.172;2023-09-19T03:19:47;8.57;;;1.75;;
79790;SDS011;69278;52.220;5.172;2023-09-19T03:22:14;7.95;;;1.67;;
79790;SDS011;69278;52.220;5.172;2023-09-19T03:24:41;7.43;;;1.50;;
79790;SDS011;69278;52.220;5.172;2023-09-19T03:27:09;6.23;;;1.40;;
79790;SDS011;69278;52.220;5.172;2023-09-19T03:29:36;11.07;;;1.60;;
79790;SDS011;69278;52.220;5.172;2023-09-19T03:32:03;7.03;;;1.50;;
79790;SDS011;69278;52.220;5.172;2023-09-19T03:34:29;7.00;;;1.50;;
79790;SDS011;69278;52.220;5.172;2023-09-19T03:36:56;11.32;;;1.80;;
79790;SDS011;69278;52.220;5.172;2023-09-19T03:39:23;4.67;;;1.30;;
79790;SDS011;69278;52.220;5.172;2023-09-19T03:41:49;6.47;;;1.48;;
79790;SDS011;69278;52.220;5.172;2023-09-19T03:44:16;6.15;;;1.63;;
79790;SDS011;69278;52.220;5.172;2023-09-19T03:46:42;8.77;;;1.67;;
79790;SDS011;69278;52.220;5.172;2023-09-19T03:49:09;9.57;;;1.60;;
79790;SDS011;69278;52.220;5.172;2023-09-19T03:51:36;6.33;;;1.67;;
79790;SDS011;69278;52.220;5.172;2023-09-19T03:54:03;6.50;;;1.70;;
79790;SDS011;69278;52.220;5.172;2023-09-19T03:56:30;6.22;;;1.60;;
79790;SDS011;69278;52.220;5.172;2023-09-19T03:58:57;9.20;;;1.80;;
79790;SDS011;69278;52.220;5.172;2023-09-19T04:01:23;7.38;;;1.70;;
79790;SDS011;69278;52.220;5.172;2023-09-19T04:03:50;5.80;;;1.70;;
79790;SDS011;69278;52.220;5.172;2023-09-19T04:06:19;10.73;;;1.80;;
79790;SDS011;69278;52.220;5.172;2023-09-19T04:08:46;6.28;;;1.60;;
79790;SDS011;69278;52.220;5.172;2023-09-19T04:11:13;7.18;;;1.38;;
79790;SDS011;69278;52.220;5.172;2023-09-19T04:13:40;6.93;;;1.92;;
79790;SDS011;69278;52.220;5.172;2023-09-19T04:16:07;8.93;;;1.53;;
79790;SDS011;69278;52.220;5.172;2023-09-19T04:18:33;10.20;;;1.83;;
79790;SDS011;69278;52.220;5.172;2023-09-19T04:21:03;6.25;;;1.38;;
79790;SDS011;69278;52.220;5.172;2023-09-19T04:23:32;7.10;;;1.67;;
79790;SDS011;69278;52.220;5.172;2023-09-19T04:25:59;8.30;;;1.50;;
79790;SDS011;69278;52.220;5.172;2023-09-19T04:28:26;6.73;;;1.50;;
79790;SDS011;69278;52.220;5.172;2023-09-19T04:30:54;8.10;;;1.60;;
79790;SDS011;69278;52.220;5.172;2023-09-19T04:33:21;7.45;;;1.40;;
79790;SDS011;69278;52.220;5.172;2023-09-19T04:35:50;8.45;;;1.58;;
79790;SDS011;69278;52.220;5.172;2023-09-19T04:38:20;7.32;;;1.55;;
79790;SDS011;69278;52.220;5.172;2023-09-19T04:40:46;7.33;;;1.50;;
79790;SDS011;69278;52.220;5.172;2023-09-19T04:43:13;10.50;;;1.63;;
79790;SDS011;69278;52.220;5.172;2023-09-19T04:45:41;7.00;;;1.58;;
79790;SDS011;69278;52.220;5.172;2023-09-19T04:48:07;8.98;;;1.75;;
79790;SDS011;69278;52.220;5.172;2023-09-19T04:50:38;6.82;;;1.48;;
79790;SDS011;69278;52.220;5.172;2023-09-19T04:53:04;7.47;;;1.90;;
79790;SDS011;69278;52.220;5.172;2023-09-19T04:55:31;5.57;;;1.38;;
79790;SDS011;69278;52.220;5.172;2023-09-19T04:57:59;6.38;;;1.58;;
79790;SDS011;69278;52.220;5.172;2023-09-19T05:00:25;8.95;;;1.60;;
79790;SDS011;69278;52.220;5.172;2023-09-19T05:02:54;5.78;;;1.42;;
79790;SDS011;69278;52.220;5.172;2023-09-19T05:05:25;6.73;;;1.60;;
79790;SDS011;69278;52.220;5.172;2023-09-19T05:07:52;6.93;;;2.00;;
79790;SDS011;69278;52.220;5.172;2023-09-19T05:10:20;6.30;;;1.55;;
79790;SDS011;69278;52.220;5.172;2023-09-19T05:12:48;6.68;;;1.50;;
79790;SDS011;69278;52.220;5.172;2023-09-19T05:15:17;7.97;;;1.70;;
79790;SDS011;69278;52.220;5.172;2023-09-19T05:17:48;7.63;;;1.60;;
79790;SDS011;69278;52.220;5.172;2023-09-19T05:20:22;8.45;;;1.75;;
79790;SDS011;69278;52.220;5.172;2023-09-19T05:23:01;7.43;;;1.60;;
79790;SDS011;69278;52.220;5.172;2023-09-19T05:25:36;8.23;;;1.55;;
79790;SDS011;69278;52.220;5.172;2023-09-19T05:28:04;9.85;;;1.70;;
79790;SDS011;69278;52.220;5.172;2023-09-19T05:30:35;7.20;;;1.20;;
79790;SDS011;69278;52.220;5.172;2023-09-19T05:33:02;6.70;;;1.50;;
79790;SDS011;69278;52.220;5.172;2023-09-19T05:35:31;9.13;;;1.60;;
79790;SDS011;69278;52.220;5.172;2023-09-19T05:37:58;3.83;;;1.30;;
79790;SDS011;69278;52.220;5.172;2023-09-19T05:40:24;7.47;;;1.70;;
79790;SDS011;69278;52.220;5.172;2023-09-19T05:42:51;7.33;;;1.50;;
79790;SDS011;69278;52.220;5.172;2023-09-19T05:45:18;5.75;;;1.60;;
79790;SDS011;69278;52.220;5.172;2023-09-19T05:47:49;6.43;;;1.33;;
79790;SDS011;69278;52.220;5.172;2023-09-19T05:50:17;6.40;;;1.50;;
79790;SDS011;69278;52.220;5.172;2023-09-19T05:52:50;8.27;;;1.80;;
79790;SDS011;69278;52.220;5.172;2023-09-19T05:55:18;6.73;;;1.60;;
79790;SDS011;69278;52.220;5.172;2023-09-19T05:57:50;4.22;;;1.30;;
79790;SDS011;69278;52.220;5.172;2023-09-19T06:00:18;6.60;;;1.45;;
79790;SDS011;69278;52.220;5.172;2023-09-19T06:02:49;5.75;;;1.83;;
79790;SDS011;69278;52.220;5.172;2023-09-19T06:05:18;10.32;;;1.60;;
79790;SDS011;69278;52.220;5.172;2023-09-19T06:07:46;4.83;;;1.60;;
79790;SDS011;69278;52.220;5.172;2023-09-19T06:10:13;6.53;;;1.80;;
79790;SDS011;69278;52.220;5.172;2023-09-19T06:12:41;5.53;;;1.70;;
79790;SDS011;69278;52.220;5.172;2023-09-19T06:15:11;6.10;;;1.50;;
79790;SDS011;69278;52.220;5.172;2023-09-19T06:17:42;4.90;;;1.35;;
79790;SDS011;69278;52.220;5.172;2023-09-19T06:20:12;5.70;;;1.80;;
79790;SDS011;69278;52.220;5.172;2023-09-19T06:22:43;8.88;;;1.58;;
79790;SDS011;69278;52.220;5.172;2023-09-19T06:25:12;8.65;;;1.50;;
79790;SDS011;69278;52.220;5.172;2023-09-19T06:27:42;5.95;;;1.30;;
79790;SDS011;69278;52.220;5.172;2023-09-19T06:30:10;9.32;;;1.50;;
79790;SDS011;69278;52.220;5.172;2023-09-19T06:32:40;8.73;;;1.60;;
79790;SDS011;69278;52.220;5.172;2023-09-19T06:35:11;10.68;;;1.70;;
79790;SDS011;69278;52.220;5.172;2023-09-19T06:37:39;8.70;;;1.60;;
79790;SDS011;69278;52.220;5.172;2023-09-19T06:40:13;9.98;;;1.90;;
79790;SDS011;69278;52.220;5.172;2023-09-19T06:45:08;9.40;;;2.10;;
79790;SDS011;69278;52.220;5.172;2023-09-19T06:47:37;8.48;;;2.05;;
79790;SDS011;69278;52.220;5.172;2023-09-19T06:50:03;6.63;;;1.63;;
79790;SDS011;69278;52.220;5.172;2023-09-19T06:52:32;8.13;;;1.60;;
79790;SDS011;69278;52.220;5.172;2023-09-19T06:54:59;8.23;;;1.48;;
79790;SDS011;69278;52.220;5.172;2023-09-19T06:57:25;10.73;;;1.73;;
79790;SDS011;69278;52.220;5.172;2023-09-19T06:59:52;9.05;;;2.20;;
79790;SDS011;69278;52.220;5.172;2023-09-19T07:02:18;8.18;;;2.00;;
79790;SDS011;69278;52.220;5.172;2023-09-19T07:04:46;10.75;;;1.92;;
79790;SDS011;69278;52.220;5.172;2023-09-19T07:07:12;10.23;;;1.60;;
79790;SDS011;69278;52.220;5.172;2023-09-19T07:09:40;11.27;;;1.90;;
79790;SDS011;69278;52.220;5.172;2023-09-19T07:12:08;10.48;;;2.05;;
79790;SDS011;69278;52.220;5.172;2023-09-19T07:14:34;8.68;;;1.90;;
79790;SDS011;69278;52.220;5.172;2023-09-19T07:17:01;6.00;;;1.63;;
79790;SDS011;69278;52.220;5.172;2023-09-19T07:19:28;8.93;;;1.90;;
79790;SDS011;69278;52.220;5.172;2023-09-19T07:21:54;11.10;;;2.07;;
79790;SDS011;69278;52.220;5.172;2023-09-19T07:24:21;12.50;;;2.10;;
79790;SDS011;69278;52.220;5.172;2023-09-19T07:26:50;10.38;;;1.95;;
79790;SDS011;69278;52.220;5.172;2023-09-19T07:29:16;7.47;;;1.85;;
79790;SDS011;69278;52.220;5.172;2023-09-19T07:31:43;9.50;;;1.83;;
79790;SDS011;69278;52.220;5.172;2023-09-19T07:34:10;9.40;;;1.60;;
79790;SDS011;69278;52.220;5.172;2023-09-19T07:36:37;10.18;;;1.80;;
79790;SDS011;69278;52.220;5.172;2023-09-19T07:39:04;9.27;;;2.00;;
79790;SDS011;69278;52.220;5.172;2023-09-19T07:41:48;9.77;;;1.63;;
79790;SDS011;69278;52.220;5.172;2023-09-19T07:44:16;7.93;;;1.70;;
79790;SDS011;69278;52.220;5.172;2023-09-19T07:46:43;9.00;;;2.30;;
79790;SDS011;69278;52.220;5.172;2023-09-19T07:49:10;6.25;;;1.60;;
79790;SDS011;69278;52.220;5.172;2023-09-19T07:51:37;8.10;;;1.85;;
79790;SDS011;69278;52.220;5.172;2023-09-19T07:54:05;6.75;;;1.77;;
79790;SDS011;69278;52.220;5.172;2023-09-19T07:56:32;9.60;;;1.90;;
79790;SDS011;69278;52.220;5.172;2023-09-19T07:58:58;7.20;;;1.97;;
79790;SDS011;69278;52.220;5.172;2023-09-19T08:01:25;9.82;;;1.58;;
79790;SDS011;69278;52.220;5.172;2023-09-19T08:03:53;7.88;;;1.65;;
79790;SDS011;69278;52.220;5.172;2023-09-19T08:06:20;8.68;;;2.00;;
79790;SDS011;69278;52.220;5.172;2023-09-19T08:08:46;7.43;;;1.55;;
79790;SDS011;69278;52.220;5.172;2023-09-19T08:11:15;7.63;;;1.80;;
79790;SDS011;69278;52.220;5.172;2023-09-19T08:13:47;7.43;;;1.80;;
79790;SDS011;69278;52.220;5.172;2023-09-19T08:16:15;10.20;;;1.80;;
79790;SDS011;69278;52.220;5.172;2023-09-19T08:18:47;11.60;;;2.22;;
79790;SDS011;69278;52.220;5.172;2023-09-19T08:21:14;11.73;;;2.28;;
79790;SDS011;69278;52.220;5.172;2023-09-19T08:23:42;8.33;;;2.23;;
79790;SDS011;69278;52.220;5.172;2023-09-19T08:26:09;8.77;;;2.15;;
79790;SDS011;69278;52.220;5.172;2023-09-19T08:28:36;9.10;;;2.00;;
79790;SDS011;69278;52.220;5.172;2023-09-19T08:31:03;6.55;;;1.90;;
79790;SDS011;69278;52.220;5.172;2023-09-19T08:33:33;8.65;;;1.98;;
79790;SDS011;69278;52.220;5.172;2023-09-19T08:36:04;9.30;;;2.03;;
79790;SDS011;69278;52.220;5.172;2023-09-19T08:38:34;7.22;;;1.63;;
79790;SDS011;69278;52.220;5.172;2023-09-19T08:41:05;7.60;;;2.20;;
79790;SDS011;69278;52.220;5.172;2023-09-19T08:43:33;7.57;;;1.80;;
79790;SDS011;69278;52.220;5.172;2023-09-19T08:46:09;10.60;;;2.15;;
79790;SDS011;69278;52.220;5.172;2023-09-19T08:48:39;9.30;;;1.90;;
79790;SDS011;69278;52.220;5.172;2023-09-19T08:51:20;6.85;;;1.83;;
79790;SDS011;69278;52.220;5.172;2023-09-19T08:54:05;12.95;;;2.13;;
79790;SDS011;69278;52.220;5.172;2023-09-19T08:56:33;10.20;;;2.03;;
79790;SDS011;69278;52.220;5.172;2023-09-19T08:59:00;8.73;;;2.05;;
79790;SDS011;69278;52.220;5.172;2023-09-19T09:01:30;12.07;;;1.97;;
79790;SDS011;69278;52.220;5.172;2023-09-19T09:03:58;7.65;;;1.67;;
79790;SDS011;69278;52.220;5.172;2023-09-19T09:06:25;4.18;;;1.40;;
79790;SDS011;69278;52.220;5.172;2023-09-19T09:08:54;6.10;;;1.63;;
79790;SDS011;69278;52.220;5.172;2023-09-19T09:11:22;7.07;;;1.70;;
79790;SDS011;69278;52.220;5.172;2023-09-19T09:13:51;10.20;;;2.10;;
79790;SDS011;69278;52.220;5.172;2023-09-19T09:16:18;14.38;;;1.90;;
79790;SDS011;69278;52.220;5.172;2023-09-19T09:18:46;7.43;;;2.00;;
79790;SDS011;69278;52.220;5.172;2023-09-19T09:21:20;10.85;;;1.80;;
79790;SDS011;69278;52.220;5.172;2023-09-19T09:23:51;10.48;;;1.70;;
79790;SDS011;69278;52.220;5.172;2023-09-19T09:26:40;9.87;;;2.00;;
79790;SDS011;69278;52.220;5.172;2023-09-19T09:29:09;9.32;;;1.80;;
79790;SDS011;69278;52.220;5.172;2023-09-19T09:31:35;10.95;;;2.30;;
79790;SDS011;69278;52.220;5.172;2023-09-19T09:34:03;13.05;;;2.22;;
79790;SDS011;69278;52.220;5.172;2023-09-19T09:36:39;4.82;;;1.83;;
79790;SDS011;69278;52.220;5.172;2023-09-19T09:39:08;6.97;;;2.00;;
79790;SDS011;69278;52.220;5.172;2023-09-19T09:41:51;8.85;;;1.88;;
79790;SDS011;69278;52.220;5.172;2023-09-19T09:44:18;8.65;;;1.88;;
79790;SDS011;69278;52.220;5.172;2023-09-19T09:46:46;9.23;;;1.60;;
79790;SDS011;69278;52.220;5.172;2023-09-19T09:49:24;7.03;;;1.80;;
79790;SDS011;69278;52.220;5.172;2023-09-19T09:51:58;7.57;;;1.80;;
79790;SDS011;69278;52.220;5.172;2023-09-19T09:54:59;8.43;;;1.70;;
79790;SDS011;69278;52.220;5.172;2023-09-19T09:57:28;7.88;;;1.70;;
79790;SDS011;69278;52.220;5.172;2023-09-19T09:59:58;5.78;;;1.48;;
79790;SDS011;69278;52.220;5.172;2023-09-19T10:02:42;8.90;;;1.60;;
79790;SDS011;69278;52.220;5.172;2023-09-19T10:07:54;6.97;;;2.15;;
79790;SDS011;69278;52.220;5.172;2023-09-19T10:10:36;7.65;;;1.80;;
79790;SDS011;69278;52.220;5.172;2023-09-19T10:13:12;9.93;;;1.70;;
79790;SDS011;69278;52.220;5.172;2023-09-19T10:15:42;6.10;;;1.60;;
79790;SDS011;69278;52.220;5.172;2023-09-19T10:18:21;6.30;;;1.60;;
79790;SDS011;69278;52.220;5.172;2023-09-19T10:20:49;7.80;;;1.85;;
79790;SDS011;69278;52.220;5.172;2023-09-19T10:23:17;7.47;;;2.00;;
79790;SDS011;69278;52.220;5.172;2023-09-19T10:25:52;5.47;;;1.85;;
79790;SDS011;69278;52.220;5.172;2023-09-19T10:28:20;10.65;;;2.00;;
79790;SDS011;69278;52.220;5.172;2023-09-19T10:30:51;5.40;;;1.83;;
79790;SDS011;69278;52.220;5.172;2023-09-19T10:33:20;6.97;;;1.75;;
79790;SDS011;69278;52.220;5.172;2023-09-19T10:35:49;11.10;;;1.95;;
79790;SDS011;69278;52.220;5.172;2023-09-19T10:38:18;7.65;;;1.90;;
79790;SDS011;69278;52.220;5.172;2023-09-19T10:40:51;9.32;;;2.03;;
79790;SDS011;69278;52.220;5.172;2023-09-19T10:43:20;5.60;;;1.70;;
79790;SDS011;69278;52.220;5.172;2023-09-19T10:45:48;7.70;;;2.30;;
79790;SDS011;69278;52.220;5.172;2023-09-19T10:48:16;11.52;;;2.35;;
79790;SDS011;69278;52.220;5.172;2023-09-19T10:50:48;6.43;;;1.58;;
79790;SDS011;69278;52.220;5.172;2023-09-19T10:53:21;6.40;;;1.80;;
79790;SDS011;69278;52.220;5.172;2023-09-19T10:55:55;7.93;;;1.83;;
79790;SDS011;69278;52.220;5.172;2023-09-19T10:58:26;7.55;;;1.70;;
79790;SDS011;69278;52.220;5.172;2023-09-19T11:00:56;6.47;;;1.48;;
79790;SDS011;69278;52.220;5.172;2023-09-19T11:03:33;7.55;;;1.50;;
79790;SDS011;69278;52.220;5.172;2023-09-19T11:06:04;6.30;;;1.65;;
79790;SDS011;69278;52.220;5.172;2023-09-19T11:08:55;6.73;;;1.60;;
79790;SDS011;69278;52.220;5.172;2023-09-19T11:11:46;8.95;;;1.90;;
79790;SDS011;69278;52.220;5.172;2023-09-19T11:30:44;8.18;;;1.60;;
79790;SDS011;69278;52.220;5.172;2023-09-19T11:33:15;6.28;;;1.40;;
79790;SDS011;69278;52.220;5.172;2023-09-19T11:36:03;16.07;;;2.03;;
79790;SDS011;69278;52.220;5.172;2023-09-19T11:46:27;7.13;;;1.50;;
79790;SDS011;69278;52.220;5.172;2023-09-19T11:48:54;4.77;;;1.40;;
79790;SDS011;69278;52.220;5.172;2023-09-19T11:51:22;6.13;;;1.45;;
79790;SDS011;69278;52.220;5.172;2023-09-19T11:53:54;3.88;;;1.20;;
79790;SDS011;69278;52.220;5.172;2023-09-19T11:56:23;7.38;;;1.35;;
79790;SDS011;69278;52.220;5.172;2023-09-19T11:58:52;8.35;;;1.65;;
79790;SDS011;69278;52.220;5.172;2023-09-19T12:01:31;6.13;;;1.50;;
79790;SDS011;69278;52.220;5.172;2023-09-19T12:04:00;5.28;;;1.10;;
79790;SDS011;69278;52.220;5.172;2023-09-19T12:06:30;6.10;;;1.45;;
79790;SDS011;69278;52.220;5.172;2023-09-19T12:08:58;4.07;;;1.13;;
79790;SDS011;69278;52.220;5.172;2023-09-19T12:11:30;4.90;;;1.30;;
79790;SDS011;69278;52.220;5.172;2023-09-19T12:14:01;5.00;;;1.17;;
79790;SDS011;69278;52.220;5.172;2023-09-19T12:16:28;4.47;;;1.35;;
79790;SDS011;69278;52.220;5.172;2023-09-19T12:18:57;7.47;;;1.55;;
79790;SDS011;69278;52.220;5.172;2023-09-19T12:21:25;5.15;;;1.30;;
79790;SDS011;69278;52.220;5.172;2023-09-19T12:26:38;8.47;;;1.43;;
79790;SDS011;69278;52.220;5.172;2023-09-19T12:29:19;5.35;;;1.27;;
79790;SDS011;69278;52.220;5.172;2023-09-19T12:31:56;2.95;;;1.23;;
79790;SDS011;69278;52.220;5.172;2023-09-19T12:34:32;5.20;;;1.27;;
79790;SDS011;69278;52.220;5.172;2023-09-19T12:37:05;3.58;;;1.30;;
79790;SDS011;69278;52.220;5.172;2023-09-19T12:39:44;6.50;;;1.70;;
79790;SDS011;69278;52.220;5.172;2023-09-19T12:42:19;3.88;;;1.20;;
79790;SDS011;69278;52.220;5.172;2023-09-19T12:44:48;6.57;;;2.25;;
79790;SDS011;69278;52.220;5.172;2023-09-19T12:47:17;4.53;;;1.40;;
79790;SDS011;69278;52.220;5.172;2023-09-19T12:50:09;3.42;;;1.20;;
79790;SDS011;69278;52.220;5.172;2023-09-19T12:52:52;7.23;;;1.33;;
79790;SDS011;69278;52.220;5.172;2023-09-19T12:55:22;3.35;;;1.30;;
79790;SDS011;69278;52.220;5.172;2023-09-19T13:00:42;4.63;;;1.33;;
79790;SDS011;69278;52.220;5.172;2023-09-19T13:05:52;5.67;;;1.10;;
79790;SDS011;69278;52.220;5.172;2023-09-19T13:11:12;3.85;;;1.10;;
79790;SDS011;69278;52.220;5.172;2023-09-19T13:13:40;2.95;;;1.00;;
79790;SDS011;69278;52.220;5.172;2023-09-19T13:16:21;3.30;;;1.00;;
79790;SDS011;69278;52.220;5.172;2023-09-19T13:18:50;4.80;;;1.10;;
79790;SDS011;69278;52.220;5.172;2023-09-19T13:21:32;2.55;;;1.00;;
79790;SDS011;69278;52.220;5.172;2023-09-19T13:24:22;3.50;;;0.90;;
79790;SDS011;69278;52.220;5.172;2023-09-19T13:26:54;5.68;;;1.30;;
79790;SDS011;69278;52.220;5.172;2023-09-19T13:29:20;4.90;;;1.08;;
79790;SDS011;69278;52.220;5.172;2023-09-19T13:31:50;7.47;;;1.30;;
79790;SDS011;69278;52.220;5.172;2023-09-19T13:34:22;3.50;;;1.10;;
79790;SDS011;69278;52.220;5.172;2023-09-19T13:36:48;3.28;;;1.10;;
79790;SDS011;69278;52.220;5.172;2023-09-19T13:39:15;3.90;;;1.02;;
79790;SDS011;69278;52.220;5.172;2023-09-19T13:41:47;5.05;;;1.48;;
79790;SDS011;69278;52.220;5.172;2023-09-19T13:44:14;4.97;;;1.30;;
79790;SDS011;69278;52.220;5.172;2023-09-19T13:46:41;7.05;;;1.20;;
79790;SDS011;69278;52.220;5.172;2023-09-19T13:49:12;4.95;;;1.30;;
79790;SDS011;69278;52.220;5.172;2023-09-19T13:51:38;4.90;;;1.15;;
79790;SDS011;69278;52.220;5.172;2023-09-19T13:54:09;2.88;;;1.13;;
79790;SDS011;69278;52.220;5.172;2023-09-19T13:56:38;4.13;;;1.30;;
79790;SDS011;69278;52.220;5.172;2023-09-19T13:59:05;4.53;;;1.55;;
79790;SDS011;69278;52.220;5.172;2023-09-19T14:01:32;6.32;;;1.05;;
79790;SDS011;69278;52.220;5.172;2023-09-19T14:03:59;3.58;;;1.05;;
79790;SDS011;69278;52.220;5.172;2023-09-19T14:06:26;7.60;;;1.50;;
79790;SDS011;69278;52.220;5.172;2023-09-19T14:08:52;4.37;;;1.30;;
79790;SDS011;69278;52.220;5.172;2023-09-19T14:11:19;5.60;;;1.15;;
79790;SDS011;69278;52.220;5.172;2023-09-19T14:13:45;3.70;;;1.20;;
79790;SDS011;69278;52.220;5.172;2023-09-19T14:16:15;5.03;;;1.45;;
79790;SDS011;69278;52.220;5.172;2023-09-19T14:18:44;5.82;;;1.45;;
79790;SDS011;69278;52.220;5.172;2023-09-19T14:21:11;4.50;;;1.63;;
79790;SDS011;69278;52.220;5.172;2023-09-19T14:23:38;4.47;;;1.42;;
79790;SDS011;69278;52.220;5.172;2023-09-19T14:26:05;6.22;;;1.63;;
79790;SDS011;69278;52.220;5.172;2023-09-19T14:28:32;7.15;;;1.30;;
79790;SDS011;69278;52.220;5.172;2023-09-19T14:31:09;3.90;;;1.33;;
79790;SDS011;69278;52.220;5.172;2023-09-19T14:33:36;5.27;;;2.00;;
79790;SDS011;69278;52.220;5.172;2023-09-19T14:36:05;4.93;;;1.65;;
79790;SDS011;69278;52.220;5.172;2023-09-19T14:38:33;4.50;;;1.27;;
79790;SDS011;69278;52.220;5.172;2023-09-19T14:41:00;6.05;;;1.50;;
79790;SDS011;69278;52.220;5.172;2023-09-19T14:43:27;3.58;;;1.48;;
79790;SDS011;69278;52.220;5.172;2023-09-19T14:45:56;8.60;;;1.77;;
79790;SDS011;69278;52.220;5.172;2023-09-19T14:48:26;5.00;;;1.60;;
79790;SDS011;69278;52.220;5.172;2023-09-19T14:50:52;6.38;;;1.80;;
79790;SDS011;69278;52.220;5.172;2023-09-19T14:53:19;5.93;;;1.75;;
79790;SDS011;69278;52.220;5.172;2023-09-19T14:55:46;5.28;;;1.77;;
79790;SDS011;69278;52.220;5.172;2023-09-19T14:58:14;8.73;;;1.80;;
79790;SDS011;69278;52.220;5.172;2023-09-19T15:00:40;6.78;;;1.92;;
79790;SDS011;69278;52.220;5.172;2023-09-19T15:03:07;8.10;;;1.90;;
79790;SDS011;69278;52.220;5.172;2023-09-19T15:05:34;6.93;;;2.00;;
79790;SDS011;69278;52.220;5.172;2023-09-19T15:08:01;4.97;;;1.80;;
79790;SDS011;69278;52.220;5.172;2023-09-19T15:10:29;5.57;;;1.80;;
79790;SDS011;69278;52.220;5.172;2023-09-19T15:12:56;7.55;;;2.20;;
79790;SDS011;69278;52.220;5.172;2023-09-19T15:15:23;7.22;;;1.98;;
79790;SDS011;69278;52.220;5.172;2023-09-19T15:17:49;7.57;;;1.90;;
79790;SDS011;69278;52.220;5.172;2023-09-19T15:20:16;7.57;;;1.48;;
79790;SDS011;69278;52.220;5.172;2023-09-19T15:22:44;6.60;;;1.60;;
79790;SDS011;69278;52.220;5.172;2023-09-19T15:25:10;8.50;;;1.90;;
79790;SDS011;69278;52.220;5.172;2023-09-19T15:27:37;8.70;;;1.63;;
79790;SDS011;69278;52.220;5.172;2023-09-19T15:30:04;4.00;;;1.50;;
79790;SDS011;69278;52.220;5.172;2023-09-19T15:32:31;8.93;;;1.60;;
79790;SDS011;69278;52.220;5.172;2023-09-19T15:34:58;6.87;;;1.90;;
79790;SDS011;69278;52.220;5.172;2023-09-19T15:37:24;6.10;;;1.73;;
79790;SDS011;69278;52.220;5.172;2023-09-19T15:39:52;5.25;;;1.80;;
79790;SDS011;69278;52.220;5.172;2023-09-19T15:42:19;6.68;;;1.80;;
79790;SDS011;69278;52.220;5.172;2023-09-19T15:44:45;6.20;;;1.83;;
79790;SDS011;69278;52.220;5.172;2023-09-19T15:47:14;6.60;;;1.80;;
79790;SDS011;69278;52.220;5.172;2023-09-19T15:49:41;6.60;;;1.88;;
79790;SDS011;69278;52.220;5.172;2023-09-19T15:52:07;4.68;;;1.73;;
79790;SDS011;69278;52.220;5.172;2023-09-19T15:54:34;5.88;;;1.70;;